Time;durP1;ratioP1;P1;durP2;ratioP2;P2;SDS_P1;SDS_P2;PMS_P1;PMS_P2;Temp;Humidity;BMP_temperature;BMP_pressure;BME280_temperature;BME280_humidity;BME280_pressure;Samples;Min_cycle;Max_cycle;Signal;HPM_P1;HPM_P2
2021/06/23 00:00:44;;;;;;;15.85;9.88;;;12.50;96.60;;;;;;5060841;28;20020;-85
2021/06/23 00:03:09;;;;;;;17.02;9.40;;;12.50;96.60;;;;;;5046856;28;20194;-85
2021/06/23 00:05:35;;;;;;;16.17;9.65;;;12.50;96.60;;;;;;5052856;28;20056;-85
2021/06/23 00:08:01;;;;;;;19.08;9.07;;;12.50;96.60;;;;;;5056649;28;20123;-85
2021/06/23 00:10:26;;;;;;;19.67;10.05;;;12.50;96.60;;;;;;5072063;28;20069;-85
2021/06/23 00:12:53;;;;;;;17.13;10.07;;;12.50;96.70;;;;;;5058144;28;20024;-85
2021/06/23 00:15:20;;;;;;;18.33;11.15;;;12.50;96.70;;;;;;5057821;28;20045;-85
2021/06/23 00:17:46;;;;;;;17.63;9.55;;;12.50;96.80;;;;;;5055767;28;20103;-85
2021/06/23 00:20:13;;;;;;;16.17;10.10;;;12.50;96.70;;;;;;5057371;28;20021;-85
2021/06/23 00:22:39;;;;;;;11.95;9.40;;;12.50;96.80;;;;;;5055436;28;20111;-85
2021/06/23 00:25:05;;;;;;;14.57;9.45;;;12.50;96.80;;;;;;5075134;28;20048;-85
2021/06/23 00:27:30;;;;;;;17.35;10.25;;;12.40;96.80;;;;;;5066674;28;20033;-85
2021/06/23 00:29:56;;;;;;;14.80;8.93;;;12.40;96.80;;;;;;5057514;28;20066;-85
2021/06/23 00:32:23;;;;;;;13.05;9.10;;;12.40;96.90;;;;;;5072980;28;20043;-85
2021/06/23 00:34:49;;;;;;;15.77;9.75;;;12.40;96.80;;;;;;5077025;28;20476;-85
2021/06/23 00:37:14;;;;;;;22.45;10.27;;;12.40;96.90;;;;;;5059910;28;20043;-85
2021/06/23 00:39:40;;;;;;;16.83;9.65;;;12.40;96.90;;;;;;5079223;28;20021;-85
2021/06/23 00:42:11;;;;;;;15.32;9.45;;;12.30;96.90;;;;;;5055655;28;20388;-85
2021/06/23 00:44:40;;;;;;;18.48;10.18;;;12.30;96.80;;;;;;5058616;28;20067;-85
2021/06/23 00:47:06;;;;;;;19.30;9.98;;;12.30;96.90;;;;;;5059918;28;20025;-85
2021/06/23 00:49:33;;;;;;;22.85;11.07;;;12.30;97.00;;;;;;5049373;28;20028;-85
2021/06/23 00:52:03;;;;;;;11.60;9.00;;;12.20;97.00;;;;;;5055047;28;20036;-85
2021/06/23 00:54:29;;;;;;;20.85;10.88;;;12.20;97.00;;;;;;5060443;28;20134;-87
2021/06/23 00:56:58;;;;;;;16.02;9.82;;;12.20;97.00;;;;;;5071523;28;20043;-86
2021/06/23 00:59:24;;;;;;;18.88;10.85;;;12.20;97.00;;;;;;5076240;28;20041;-86
2021/06/23 01:01:50;;;;;;;19.25;10.43;;;12.20;97.10;;;;;;5058926;28;20036;-87
2021/06/23 01:04:16;;;;;;;16.20;9.63;;;12.30;97.20;;;;;;5055686;28;20518;-86
2021/06/23 01:06:42;;;;;;;14.55;10.07;;;12.20;97.10;;;;;;5046664;28;20115;-86
2021/06/23 01:09:07;;;;;;;19.05;8.88;;;12.20;97.10;;;;;;5077306;28;20043;-86
2021/06/23 01:11:41;;;;;;;17.40;10.63;;;12.20;97.10;;;;;;5059059;28;20099;-86
2021/06/23 01:14:06;;;;;;;14.05;9.73;;;12.20;97.10;;;;;;5051538;28;20123;-86
2021/06/23 01:16:38;;;;;;;14.32;9.32;;;12.20;97.10;;;;;;5047062;28;20122;-86
2021/06/23 01:19:10;;;;;;;18.52;10.07;;;12.20;97.10;;;;;;5053711;28;20072;-86
2021/06/23 01:21:36;;;;;;;14.70;9.60;;;12.20;97.10;;;;;;5073091;28;20024;-86
2021/06/23 01:24:02;;;;;;;18.83;10.35;;;12.20;97.10;;;;;;5056551;28;20029;-86
2021/06/23 01:26:27;;;;;;;16.45;10.70;;;12.20;97.40;;;;;;5080876;28;20106;-86
2021/06/23 01:28:53;;;;;;;19.23;11.38;;;12.20;97.20;;;;;;5068982;28;20083;-86
2021/06/23 01:31:20;;;;;;;13.10;9.50;;;12.20;97.20;;;;;;5056930;28;20095;-86
2021/06/23 01:33:46;;;;;;;13.02;9.80;;;12.20;97.20;;;;;;5056227;28;20031;-86
2021/06/23 01:36:11;;;;;;;13.07;9.60;;;12.20;97.30;;;;;;5055692;28;20035;-86
2021/06/23 01:38:37;;;;;;;13.63;9.23;;;12.20;97.30;;;;;;5052896;28;20036;-86
2021/06/23 01:41:03;;;;;;;14.68;8.57;;;12.20;97.20;;;;;;5071519;28;20077;-86
2021/06/23 01:43:29;;;;;;;12.05;8.30;;;12.20;97.20;;;;;;5058345;28;20056;-86
2021/06/23 01:45:54;;;;;;;17.05;9.18;;;12.20;97.20;;;;;;5054270;28;20369;-86
2021/06/23 01:48:22;;;;;;;13.23;8.45;;;12.20;97.20;;;;;;5070647;28;20483;-86
2021/06/23 01:50:53;;;;;;;15.15;8.75;;;12.20;97.20;;;;;;5059392;28;20025;-85
2021/06/23 01:53:19;;;;;;;16.70;9.68;;;12.20;97.20;;;;;;5073159;28;20157;-86
2021/06/23 01:55:47;;;;;;;15.82;9.90;;;12.20;97.30;;;;;;5075665;28;20044;-85
2021/06/23 01:58:13;;;;;;;18.10;8.68;;;12.20;97.30;;;;;;5058531;28;20062;-85
2021/06/23 02:01:15;;;;;;;17.05;8.75;;;12.20;97.30;;;;;;5058641;28;20016;-86
2021/06/23 02:03:56;;;;;;;16.83;9.15;;;12.20;97.30;;;;;;5062731;28;20044;-86
2021/06/23 02:06:40;;;;;;;11.77;9.05;;;12.20;97.30;;;;;;5070000;28;20045;-86
2021/06/23 02:09:27;;;;;;;13.73;9.48;;;12.20;97.30;;;;;;5066739;28;20031;-86
2021/06/23 02:12:19;;;;;;;21.85;11.00;;;12.30;97.20;;;;;;5076319;28;20055;-86
2021/06/23 02:14:45;;;;;;;15.98;10.32;;;12.20;97.30;;;;;;5073245;28;20051;-86
2021/06/23 02:17:12;;;;;;;21.33;9.93;;;12.20;97.30;;;;;;5075628;28;20028;-86
2021/06/23 02:19:43;;;;;;;16.17;9.70;;;12.20;97.30;;;;;;5070769;28;20040;-86
2021/06/23 02:22:11;;;;;;;14.10;9.57;;;12.20;97.30;;;;;;5054515;28;20070;-86
2021/06/23 02:24:36;;;;;;;18.88;8.55;;;12.20;97.40;;;;;;5076486;28;20454;-86
2021/06/23 02:27:02;;;;;;;20.17;9.77;;;12.30;97.40;;;;;;5062991;28;20048;-86
2021/06/23 02:29:30;;;;;;;12.57;8.55;;;12.20;97.30;;;;;;5056977;28;20140;-86
2021/06/23 02:31:56;;;;;;;14.15;8.82;;;12.20;97.30;;;;;;5064786;28;20028;-86
2021/06/23 02:34:23;;;;;;;11.90;9.20;;;12.20;97.20;;;;;;5065973;28;20032;-86
2021/06/23 02:36:49;;;;;;;13.07;7.82;;;12.20;97.30;;;;;;5071584;28;20540;-86
2021/06/23 02:39:15;;;;;;;17.85;8.95;;;12.20;97.20;;;;;;5076113;28;20116;-86
2021/06/23 02:41:41;;;;;;;15.05;8.43;;;12.20;97.30;;;;;;5058827;28;20058;-86
2021/06/23 02:44:07;;;;;;;19.00;9.65;;;12.20;97.30;;;;;;5052422;28;20028;-86
2021/06/23 02:46:33;;;;;;;16.48;8.70;;;12.20;97.30;;;;;;5074947;28;20035;-86
2021/06/23 02:49:00;;;;;;;13.88;8.50;;;12.20;97.50;;;;;;5069050;28;20047;-86
2021/06/23 02:51:27;;;;;;;13.50;7.90;;;12.20;97.20;;;;;;5075692;28;20021;-86
2021/06/23 02:53:55;;;;;;;14.18;8.75;;;12.20;97.20;;;;;;5070115;28;20028;-86
2021/06/23 02:56:21;;;;;;;10.77;8.20;;;12.20;97.20;;;;;;5055973;28;20059;-86
2021/06/23 02:58:48;;;;;;;12.45;8.52;;;12.20;97.20;;;;;;5055638;28;20032;-86
2021/06/23 03:01:15;;;;;;;17.73;8.18;;;12.20;97.10;;;;;;5054993;28;20042;-86
2021/06/23 03:03:42;;;;;;;12.20;8.60;;;12.20;97.10;;;;;;5063853;28;20044;-86
2021/06/23 03:06:08;;;;;;;12.32;8.15;;;12.20;97.30;;;;;;5051120;28;20035;-86
2021/06/23 03:08:35;;;;;;;19.27;8.50;;;12.20;97.00;;;;;;5064446;28;20025;-86
2021/06/23 03:11:00;;;;;;;15.07;8.77;;;12.10;97.00;;;;;;5073668;28;20135;-86
2021/06/23 03:13:33;;;;;;;15.55;8.52;;;12.10;97.00;;;;;;5055889;28;20428;-69
2021/06/23 03:15:58;;;;;;;13.82;8.02;;;12.20;97.10;;;;;;5045707;28;20025;-69
2021/06/23 03:18:24;;;;;;;13.73;7.82;;;12.20;97.00;;;;;;5042413;28;20022;-69
2021/06/23 03:20:50;;;;;;;19.48;8.73;;;12.20;97.00;;;;;;5041371;28;20356;-69
2021/06/23 03:23:16;;;;;;;17.17;8.80;;;12.20;97.00;;;;;;5042438;28;20061;-68
2021/06/23 03:25:42;;;;;;;16.65;8.05;;;12.20;97.00;;;;;;5039597;28;20083;-69
2021/06/23 03:28:11;;;;;;;11.95;8.68;;;12.20;96.90;;;;;;5046390;28;20021;-69
2021/06/23 03:30:37;;;;;;;17.75;8.48;;;12.10;96.80;;;;;;5038017;28;20029;-69
2021/06/23 03:33:03;;;;;;;11.07;8.55;;;12.20;96.90;;;;;;5037913;28;20029;-69
2021/06/23 03:35:28;;;;;;;16.08;9.30;;;12.20;96.90;;;;;;5042783;28;20068;-69
2021/06/23 03:37:55;;;;;;;16.05;8.95;;;12.20;96.90;;;;;;5037738;28;20068;-69
2021/06/23 03:40:22;;;;;;;12.38;8.77;;;12.20;96.80;;;;;;5045201;28;20352;-69
2021/06/23 03:42:48;;;;;;;12.85;9.02;;;12.20;96.80;;;;;;5044429;28;20400;-69
2021/06/23 03:45:14;;;;;;;14.15;9.63;;;12.20;96.80;;;;;;5037664;28;20034;-69
2021/06/23 03:47:41;;;;;;;11.52;9.20;;;12.20;96.80;;;;;;5042964;28;20056;-69
2021/06/23 03:50:07;;;;;;;19.40;9.10;;;12.20;96.70;;;;;;5046707;28;20028;-69
2021/06/23 03:52:33;;;;;;;15.43;8.45;;;12.20;96.80;;;;;;5043519;28;20032;-69
2021/06/23 03:54:59;;;;;;;14.18;9.38;;;12.20;96.70;;;;;;5047388;28;20100;-69
2021/06/23 03:57:24;;;;;;;17.95;8.75;;;12.20;96.70;;;;;;5041076;28;20017;-69
2021/06/23 03:59:51;;;;;;;17.15;9.05;;;12.20;96.70;;;;;;5041569;28;20033;-69
2021/06/23 04:02:17;;;;;;;18.52;9.88;;;12.20;96.70;;;;;;5042543;28;20041;-69
2021/06/23 04:04:45;;;;;;;15.82;8.88;;;12.20;96.70;;;;;;5046891;28;20044;-69
2021/06/23 04:07:10;;;;;;;14.73;8.60;;;12.20;96.70;;;;;;5034759;28;20096;-69
2021/06/23 04:09:36;;;;;;;13.93;9.15;;;12.20;96.70;;;;;;5044567;28;20120;-69
2021/06/23 04:12:01;;;;;;;18.90;10.23;;;12.20;96.80;;;;;;5040670;28;20037;-68
2021/06/23 04:14:28;;;;;;;17.67;9.40;;;12.20;96.80;;;;;;5053201;28;20025;-68
2021/06/23 04:16:54;;;;;;;21.20;9.45;;;12.20;96.80;;;;;;5043358;28;20095;-68
2021/06/23 04:19:20;;;;;;;17.02;9.18;;;12.20;96.80;;;;;;5048317;28;20436;-68
2021/06/23 04:21:45;;;;;;;13.85;8.32;;;12.20;96.80;;;;;;5047134;28;20037;-68
2021/06/23 04:24:11;;;;;;;14.25;9.02;;;12.20;96.80;;;;;;5037603;28;20468;-67
2021/06/23 04:26:38;;;;;;;16.77;9.25;;;12.30;96.90;;;;;;5026529;28;20033;-68
2021/06/23 04:29:03;;;;;;;17.25;8.70;;;12.30;96.80;;;;;;5035087;28;20435;-68
2021/06/23 04:31:29;;;;;;;18.73;10.55;;;12.30;96.80;;;;;;5024711;28;20025;-68
2021/06/23 04:33:55;;;;;;;12.73;8.93;;;12.30;96.80;;;;;;5035787;28;20028;-68
2021/06/23 04:36:20;;;;;;;14.68;8.77;;;12.30;96.80;;;;;;5024485;28;20105;-68
2021/06/23 04:38:45;;;;;;;15.13;8.50;;;12.30;96.70;;;;;;5033697;28;20075;-68
2021/06/23 04:41:11;;;;;;;8.85;6.70;;;12.30;97.00;;;;;;5024872;28;20026;-68
2021/06/23 04:43:37;;;;;;;17.27;7.25;;;12.30;96.60;;;;;;5033823;28;20457;-68
2021/06/23 04:46:02;;;;;;;14.70;8.00;;;12.30;96.50;;;;;;5018998;28;20053;-68
2021/06/23 04:48:29;;;;;;;14.73;7.85;;;12.30;96.50;;;;;;5033053;28;20032;-68
2021/06/23 04:50:55;;;;;;;13.32;7.88;;;12.40;96.50;;;;;;5027587;28;20109;-68
2021/06/23 04:53:20;;;;;;;13.90;7.93;;;12.40;96.40;;;;;;5032900;28;20120;-68
2021/06/23 04:55:46;;;;;;;15.38;6.80;;;12.50;96.30;;;;;;5023146;28;20018;-67
2021/06/23 04:58:11;;;;;;;12.35;7.10;;;12.40;96.30;;;;;;5031440;28;20053;-67
2021/06/23 05:00:37;;;;;;;12.77;7.00;;;12.50;96.30;;;;;;5029463;28;20026;-68
2021/06/23 05:03:03;;;;;;;12.02;6.70;;;12.50;96.20;;;;;;5028889;28;20035;-68
2021/06/23 05:05:28;;;;;;;12.77;6.50;;;12.50;96.20;;;;;;5027978;28;20028;-68
2021/06/23 05:07:54;;;;;;;10.45;5.65;;;12.60;96.20;;;;;;5029627;28;20025;-67
2021/06/23 05:10:21;;;;;;;13.50;6.18;;;12.60;96.10;;;;;;5020351;28;20036;-67
2021/06/23 05:12:46;;;;;;;13.45;6.25;;;12.60;96.00;;;;;;5032324;28;20068;-67
2021/06/23 05:15:12;;;;;;;9.45;5.72;;;12.60;95.90;;;;;;5030899;28;20459;-67
2021/06/23 05:17:38;;;;;;;9.88;5.22;;;12.70;95.90;;;;;;5027311;28;20026;-67
2021/06/23 05:20:04;;;;;;;12.65;5.65;;;12.70;95.70;;;;;;5032851;28;20479;-67
2021/06/23 05:22:30;;;;;;;8.85;5.22;;;12.70;95.70;;;;;;5031680;28;20029;-67
2021/06/23 05:24:58;;;;;;;14.43;6.57;;;12.70;95.60;;;;;;5028543;28;20025;-67
2021/06/23 05:27:23;;;;;;;9.90;5.40;;;12.80;95.50;;;;;;5023118;28;20021;-67
2021/06/23 05:29:49;;;;;;;11.65;5.30;;;12.80;95.50;;;;;;5028087;28;20467;-67
2021/06/23 05:32:14;;;;;;;11.90;6.18;;;12.80;95.30;;;;;;5021521;28;20177;-67
2021/06/23 05:34:40;;;;;;;11.27;4.70;;;12.80;95.30;;;;;;5032992;28;20029;-67
2021/06/23 05:37:05;;;;;;;10.43;4.85;;;12.90;95.20;;;;;;5025033;28;20029;-68
2021/06/23 05:39:31;;;;;;;12.02;5.13;;;12.90;95.20;;;;;;5031488;28;20479;-67
2021/06/23 05:41:57;;;;;;;10.45;5.00;;;13.00;95.10;;;;;;5030256;28;20042;-67
2021/06/23 05:44:23;;;;;;;9.52;4.93;;;13.00;95.10;;;;;;5031836;28;20041;-67
2021/06/23 05:46:48;;;;;;;12.02;5.22;;;13.10;95.10;;;;;;5024309;28;20039;-67
2021/06/23 05:49:14;;;;;;;10.85;5.00;;;13.10;94.90;;;;;;5031357;28;20029;-67
2021/06/23 05:51:39;;;;;;;12.25;4.90;;;13.10;94.80;;;;;;5027777;28;20072;-67
2021/06/23 05:54:05;;;;;;;9.23;5.22;;;13.20;94.80;;;;;;5029688;28;20041;-67
2021/06/23 05:56:30;;;;;;;11.45;4.72;;;13.20;94.70;;;;;;5021745;28;20040;-67
2021/06/23 05:58:56;;;;;;;10.55;4.63;;;13.30;94.60;;;;;;5017848;28;20028;-67
2021/06/23 06:01:22;;;;;;;11.48;5.13;;;13.40;94.60;;;;;;5029003;28;20037;-67
2021/06/23 06:03:48;;;;;;;20.30;5.47;;;13.40;94.50;;;;;;5023518;28;20061;-67
2021/06/23 06:06:14;;;;;;;6.80;4.63;;;13.50;94.40;;;;;;5027275;28;20444;-67
2021/06/23 06:08:40;;;;;;;10.82;5.15;;;13.60;94.40;;;;;;5028089;28;20049;-67
2021/06/23 06:11:05;;;;;;;9.15;4.25;;;13.70;94.20;;;;;;5031311;28;20107;-67
2021/06/23 06:13:31;;;;;;;11.23;4.30;;;13.80;94.20;;;;;;5028377;28;20419;-67
2021/06/23 06:15:56;;;;;;;8.50;3.90;;;13.80;93.80;;;;;;5032684;28;20483;-67
2021/06/23 06:18:25;;;;;;;5.82;3.85;;;13.80;93.70;;;;;;5026595;28;20452;-67
2021/06/23 06:20:53;;;;;;;8.98;4.47;;;13.90;94.00;;;;;;5023406;28;20026;-67
2021/06/23 06:23:20;;;;;;;10.50;4.40;;;14.00;93.80;;;;;;5023941;28;20072;-67
2021/06/23 06:25:46;;;;;;;9.40;3.60;;;14.10;93.50;;;;;;5030736;28;20029;-67
2021/06/23 06:28:11;;;;;;;16.20;4.47;;;14.10;93.40;;;;;;5023138;28;20033;-67
2021/06/23 06:30:37;;;;;;;8.80;3.30;;;14.20;93.30;;;;;;5025727;28;20026;-68
2021/06/23 06:33:03;;;;;;;11.05;4.50;;;14.20;93.30;;;;;;5023948;28;20385;-67
2021/06/23 06:35:28;;;;;;;8.18;4.03;;;14.20;93.30;;;;;;5032245;28;20036;-67
2021/06/23 06:37:56;;;;;;;5.22;3.83;;;14.30;93.30;;;;;;5024157;28;20025;-68
2021/06/23 06:40:21;;;;;;;8.30;3.75;;;14.40;93.10;;;;;;5028991;28;20025;-67
2021/06/23 06:42:47;;;;;;;5.65;3.00;;;14.50;93.00;;;;;;5028747;28;20044;-67
2021/06/23 06:45:13;;;;;;;9.38;3.70;;;14.60;93.00;;;;;;5031473;28;20038;-67
2021/06/23 06:47:38;;;;;;;6.32;3.33;;;14.70;92.80;;;;;;5024504;28;20034;-67
2021/06/23 06:50:04;;;;;;;9.68;3.50;;;14.80;92.70;;;;;;5017118;28;20029;-67
2021/06/23 06:52:30;;;;;;;6.00;3.25;;;14.90;92.60;;;;;;5022842;28;20033;-67
2021/06/23 06:54:56;;;;;;;9.32;3.42;;;14.90;92.70;;;;;;5026750;28;20079;-67
2021/06/23 06:57:21;;;;;;;8.48;3.53;;;15.00;92.50;;;;;;5029909;28;20040;-68
2021/06/23 06:59:47;;;;;;;7.78;2.92;;;15.00;92.30;;;;;;5024200;28;20060;-67
2021/06/23 07:02:12;;;;;;;9.35;3.20;;;15.00;92.40;;;;;;5044005;28;20112;-67
2021/06/23 07:04:38;;;;;;;9.98;3.70;;;15.00;92.30;;;;;;5028224;28;20109;-67
2021/06/23 07:07:04;;;;;;;5.75;2.75;;;15.10;92.40;;;;;;5019378;28;20038;-67
2021/06/23 07:09:29;;;;;;;4.57;2.80;;;15.10;92.20;;;;;;5019138;28;20033;-67
2021/06/23 07:11:55;;;;;;;8.98;2.38;;;15.10;92.20;;;;;;5021171;28;20635;-67
2021/06/23 07:14:21;;;;;;;10.75;2.88;;;15.10;91.90;;;;;;5025264;28;20037;-69
2021/06/23 07:16:47;;;;;;;9.90;2.72;;;15.10;91.60;;;;;;5018889;28;20086;-70
2021/06/23 07:19:13;;;;;;;8.32;2.45;;;15.10;91.50;;;;;;5032833;28;20022;-69
2021/06/23 07:21:39;;;;;;;6.00;2.13;;;15.10;91.30;;;;;;5027889;28;20031;-69
2021/06/23 07:24:06;;;;;;;6.97;1.60;;;15.10;91.20;;;;;;5028890;28;20072;-68
2021/06/23 07:26:31;;;;;;;6.28;2.38;;;15.10;90.90;;;;;;5030876;28;20021;-68
2021/06/23 07:29:00;;;;;;;6.10;1.67;;;15.20;90.60;;;;;;5030737;28;20251;-67
2021/06/23 07:34:16;;;;;;;6.85;2.13;;;15.20;90.50;;;;;;5024518;28;20029;-67
2021/06/23 07:36:50;;;;;;;10.43;2.45;;;15.30;90.30;;;;;;5024779;28;20022;-68
2021/06/23 07:39:17;;;;;;;5.20;1.85;;;15.20;89.60;;;;;;5019350;28;20057;-68
2021/06/23 07:41:46;;;;;;;7.10;1.67;;;15.30;89.70;;;;;;5030402;28;20033;-69
2021/06/23 07:44:14;;;;;;;8.25;1.60;;;15.30;89.80;;;;;;5024135;28;20083;-68
2021/06/23 07:46:48;;;;;;;7.20;2.45;;;15.40;89.30;;;;;;5022257;28;20029;-68
2021/06/23 07:49:15;;;;;;;6.57;1.88;;;15.50;89.50;;;;;;5025186;28;20022;-68
2021/06/23 07:51:59;;;;;;;7.20;2.58;;;15.60;89.00;;;;;;5025589;28;20046;-68
2021/06/23 08:03:12;;;;;;;8.32;1.83;;;16.00;88.60;;;;;;5022524;28;20109;-68
2021/06/23 08:08:26;;;;;;;5.65;1.25;;;16.20;87.50;;;;;;5036130;28;20041;-68
2021/06/23 08:10:54;;;;;;;4.95;1.10;;;16.30;86.80;;;;;;5025117;28;20033;-68
2021/06/23 08:13:20;;;;;;;9.65;2.15;;;16.30;86.40;;;;;;5020711;28;20038;-68
2021/06/23 08:15:48;;;;;;;6.28;1.13;;;16.30;85.80;;;;;;5027653;28;20095;-69
2021/06/23 08:18:20;;;;;;;7.75;1.55;;;16.40;86.10;;;;;;5028672;28;20422;-69
2021/06/23 08:20:49;;;;;;;10.45;1.27;;;16.50;85.20;;;;;;5032539;28;20030;-69
2021/06/23 08:23:16;;;;;;;7.47;1.30;;;16.50;85.10;;;;;;5030575;28;20042;-69
2021/06/23 08:25:42;;;;;;;4.13;1.10;;;16.60;84.80;;;;;;5019684;28;20017;-68
2021/06/23 08:28:08;;;;;;;4.55;0.98;;;16.70;85.00;;;;;;5024896;28;20443;-67
2021/06/23 08:30:34;;;;;;;7.03;1.70;;;16.80;84.40;;;;;;5034206;28;20034;-68
2021/06/23 08:33:01;;;;;;;9.13;1.70;;;17.00;84.20;;;;;;5030353;28;20539;-67
2021/06/23 08:35:27;;;;;;;8.57;1.75;;;17.10;83.90;;;;;;5024318;28;20034;-68
2021/06/23 08:37:54;;;;;;;7.88;1.20;;;17.30;84.60;;;;;;5015668;28;20034;-68
2021/06/23 08:40:20;;;;;;;5.68;1.10;;;17.40;84.20;;;;;;5026723;28;20044;-69
2021/06/23 08:42:46;;;;;;;7.30;1.08;;;17.60;83.40;;;;;;5023486;28;20029;-68
2021/06/23 08:45:12;;;;;;;5.82;1.05;;;17.70;83.10;;;;;;5032823;28;20038;-68
2021/06/23 08:47:39;;;;;;;10.15;1.15;;;17.70;81.60;;;;;;5029482;28;20032;-67
2021/06/23 08:50:06;;;;;;;5.43;0.88;;;17.70;79.40;;;;;;5034805;28;20099;-68
2021/06/23 08:52:32;;;;;;;6.68;1.00;;;17.50;78.30;;;;;;5034694;28;20033;-67
2021/06/23 08:54:57;;;;;;;6.00;1.35;;;17.30;77.80;;;;;;5031726;28;20033;-67
2021/06/23 08:57:23;;;;;;;4.65;1.20;;;17.20;78.00;;;;;;5019014;28;20033;-68
2021/06/23 08:59:48;;;;;;;7.38;1.75;;;17.20;78.10;;;;;;5023325;28;20021;-68
2021/06/23 09:02:17;;;;;;;6.82;1.42;;;17.20;78.00;;;;;;5025470;28;20029;-68
2021/06/23 09:04:56;;;;;;;6.13;1.60;;;17.20;78.10;;;;;;5026265;28;20119;-68
2021/06/23 09:07:35;;;;;;;10.18;1.65;;;17.30;78.50;;;;;;5030992;28;20038;-68
2021/06/23 09:10:01;;;;;;;5.38;0.95;;;17.30;79.00;;;;;;5021120;28;20046;-68
2021/06/23 09:12:26;;;;;;;5.85;1.33;;;17.50;78.80;;;;;;5014971;28;20045;-68
2021/06/23 09:14:52;;;;;;;9.80;1.30;;;17.50;77.90;;;;;;5029519;28;20017;-68
2021/06/23 09:17:18;;;;;;;4.63;1.10;;;17.60;78.30;;;;;;5028448;28;20036;-68
2021/06/23 09:19:48;;;;;;;8.18;1.30;;;17.70;78.70;;;;;;5029773;28;20037;-68
2021/06/23 09:22:34;;;;;;;6.40;0.93;;;17.90;78.40;;;;;;5025118;28;20037;-68
2021/06/23 09:25:22;;;;;;;7.53;1.20;;;18.10;75.90;;;;;;5032906;28;20025;-68
2021/06/23 09:27:53;;;;;;;9.27;0.90;;;18.20;75.00;;;;;;5034195;28;20493;-67
2021/06/23 09:30:36;;;;;;;4.95;1.05;;;18.30;75.40;;;;;;5033967;28;20485;-68
2021/06/23 09:33:09;;;;;;;8.23;1.30;;;18.50;74.30;;;;;;5034501;28;20112;-68
2021/06/23 09:35:43;;;;;;;5.57;1.75;;;18.50;73.20;;;;;;5032343;28;20033;-68
2021/06/23 09:38:33;;;;;;;5.57;0.93;;;18.60;72.80;;;;;;5020228;28;20077;-68
2021/06/23 09:41:00;;;;;;;4.30;0.93;;;18.70;73.60;;;;;;5034493;28;20017;-68
2021/06/23 09:43:36;;;;;;;4.22;1.08;;;18.70;71.80;;;;;;5026343;28;20044;-68
2021/06/23 09:46:15;;;;;;;7.32;0.98;;;18.70;71.80;;;;;;5034613;28;20104;-69
2021/06/23 09:48:41;;;;;;;6.03;0.77;;;18.70;72.60;;;;;;5034234;28;20026;-68
2021/06/23 09:51:12;;;;;;;7.45;1.30;;;18.90;72.90;;;;;;5019523;28;20025;-69
2021/06/23 09:53:37;;;;;;;7.63;1.05;;;19.10;71.40;;;;;;5031170;28;20124;-68
2021/06/23 09:56:03;;;;;;;7.00;1.13;;;19.20;70.30;;;;;;5033192;28;20109;-68
2021/06/23 09:58:37;;;;;;;5.00;0.88;;;19.00;69.70;;;;;;5032779;28;20175;-68
2021/06/23 10:01:11;;;;;;;5.70;1.25;;;19.10;69.50;;;;;;5027844;28;20018;-68
2021/06/23 10:04:01;;;;;;;8.40;1.40;;;19.10;69.00;;;;;;5022131;28;20484;-68
2021/06/23 10:06:33;;;;;;;6.70;0.80;;;19.10;69.20;;;;;;5034225;28;20049;-68
2021/06/23 10:09:15;;;;;;;4.68;0.82;;;19.20;70.20;;;;;;5033995;28;20383;-68
2021/06/23 10:11:42;;;;;;;10.60;1.50;;;19.30;69.30;;;;;;5029723;28;20053;-68
2021/06/23 10:14:08;;;;;;;8.63;1.27;;;19.10;69.40;;;;;;5032275;28;20483;-68
2021/06/23 10:16:35;;;;;;;11.65;1.65;;;19.10;68.90;;;;;;5032408;28;20041;-68
2021/06/23 10:19:02;;;;;;;5.97;0.88;;;19.10;69.00;;;;;;5030030;28;20033;-68
2021/06/23 10:21:30;;;;;;;6.28;0.98;;;19.10;70.00;;;;;;5033090;28;20423;-68
2021/06/23 10:23:58;;;;;;;5.25;1.05;;;19.10;69.30;;;;;;5031412;28;20037;-68
2021/06/23 10:26:31;;;;;;;7.90;1.27;;;19.20;68.80;;;;;;5033237;28;20024;-68
2021/06/23 10:28:58;;;;;;;6.68;1.00;;;19.30;68.50;;;;;;5033489;28;20057;-68
2021/06/23 10:31:27;;;;;;;5.00;1.15;;;19.50;68.30;;;;;;5033441;28;20459;-68
2021/06/23 10:33:54;;;;;;;3.55;0.75;;;19.50;67.90;;;;;;5029638;28;20018;-69
2021/06/23 10:36:21;;;;;;;8.38;1.00;;;19.60;67.30;;;;;;5030484;28;20045;-68
2021/06/23 10:38:48;;;;;;;7.43;0.85;;;19.70;67.40;;;;;;5033436;28;20489;-68
2021/06/23 10:41:15;;;;;;;6.40;0.73;;;19.80;67.70;;;;;;5030904;28;20025;-68
2021/06/23 10:43:41;;;;;;;7.30;0.70;;;20.00;67.00;;;;;;5031440;28;20040;-68
2021/06/23 10:46:06;;;;;;;6.93;1.52;;;20.20;67.10;;;;;;5031391;28;20025;-68
2021/06/23 10:48:57;;;;;;;3.25;0.60;;;20.30;65.00;;;;;;5033217;28;20034;-68
2021/06/23 10:51:27;;;;;;;3.85;0.85;;;20.40;65.40;;;;;;5029428;28;20029;-68
2021/06/23 10:53:52;;;;;;;3.08;0.80;;;20.50;65.00;;;;;;5032143;28;20143;-68
2021/06/23 10:56:44;;;;;;;5.05;1.02;;;20.50;64.80;;;;;;5031583;28;20029;-69
2021/06/23 10:59:32;;;;;;;5.55;1.30;;;20.60;64.50;;;;;;5032245;28;20087;-68
2021/06/23 11:02:16;;;;;;;7.85;1.50;;;20.90;65.20;;;;;;5016620;28;20017;-68
2021/06/23 11:05:03;;;;;;;4.97;1.00;;;21.00;63.70;;;;;;5031888;28;20033;-68
2021/06/23 11:07:36;;;;;;;5.95;0.98;;;21.00;64.80;;;;;;5032948;28;20028;-68
2021/06/23 11:10:17;;;;;;;4.53;0.60;;;21.10;64.60;;;;;;5033090;28;20040;-68
2021/06/23 11:12:50;;;;;;;4.43;0.70;;;21.40;63.30;;;;;;5032514;28;20079;-68
2021/06/23 11:15:19;;;;;;;4.53;0.73;;;21.50;63.00;;;;;;5031783;28;20025;-68
2021/06/23 11:17:47;;;;;;;5.80;0.82;;;21.60;61.10;;;;;;5030769;28;20029;-68
2021/06/23 11:20:18;;;;;;;7.75;1.25;;;21.70;61.80;;;;;;5025428;28;20420;-69
2021/06/23 11:22:45;;;;;;;4.30;0.57;;;21.80;61.10;;;;;;5014193;28;20535;-69
2021/06/23 11:25:34;;;;;;;4.38;0.50;;;21.90;60.80;;;;;;5032543;28;20037;-68
2021/06/23 11:28:09;;;;;;;5.38;0.77;;;21.90;60.90;;;;;;5031794;28;20025;-69
2021/06/23 11:30:36;;;;;;;5.07;0.80;;;21.90;60.30;;;;;;5032859;28;20025;-68
2021/06/23 11:33:26;;;;;;;5.28;0.80;;;22.00;59.50;;;;;;5031790;28;20076;-68
2021/06/23 11:35:52;;;;;;;4.18;0.77;;;22.00;58.80;;;;;;5033780;28;20118;-68
2021/06/23 11:38:17;;;;;;;5.18;0.57;;;22.10;58.50;;;;;;5027476;28;20108;-68
2021/06/23 11:40:43;;;;;;;3.30;0.80;;;22.10;59.50;;;;;;5036783;28;20108;-68
2021/06/23 11:43:08;;;;;;;6.18;0.70;;;22.00;57.60;;;;;;5036901;28;20018;-68
2021/06/23 11:45:34;;;;;;;3.63;0.85;;;22.10;57.90;;;;;;5035324;28;20549;-68
2021/06/23 11:48:00;;;;;;;5.65;0.95;;;22.10;57.50;;;;;;5035293;28;20053;-69
2021/06/23 11:50:25;;;;;;;4.32;0.70;;;22.20;57.80;;;;;;5036189;28;20030;-69
2021/06/23 11:52:51;;;;;;;5.38;0.70;;;22.30;57.00;;;;;;5036548;28;20076;-68
2021/06/23 11:55:26;;;;;;;3.60;0.70;;;22.30;58.00;;;;;;5031274;28;20028;-68
2021/06/23 11:57:59;;;;;;;5.70;0.80;;;22.40;57.50;;;;;;5023873;28;20084;-69
2021/06/23 12:00:26;;;;;;;5.25;0.80;;;22.40;57.10;;;;;;5032796;28;20021;-68
2021/06/23 12:02:52;;;;;;;7.05;0.82;;;22.30;56.50;;;;;;5020009;28;20038;-69
2021/06/23 12:05:18;;;;;;;6.43;1.00;;;22.20;58.20;;;;;;5035065;28;20030;-69
2021/06/23 12:07:44;;;;;;;3.85;0.80;;;22.40;57.40;;;;;;5036307;28;20379;-69
2021/06/23 12:10:10;;;;;;;4.93;0.80;;;22.60;57.20;;;;;;5036218;28;20025;-69
2021/06/23 12:12:36;;;;;;;4.07;1.00;;;22.70;57.00;;;;;;5033437;28;20053;-69
2021/06/23 12:15:05;;;;;;;6.35;0.90;;;22.60;55.90;;;;;;5034957;28;20025;-69
2021/06/23 12:17:30;;;;;;;4.75;0.70;;;22.40;55.90;;;;;;5036001;28;20417;-69
2021/06/23 12:19:56;;;;;;;3.53;1.23;;;22.20;56.00;;;;;;5035781;28;20052;-69
2021/06/23 12:22:24;;;;;;;3.85;1.08;;;22.20;55.90;;;;;;5036003;28;20513;-69
2021/06/23 12:24:50;;;;;;;6.90;1.23;;;22.10;56.20;;;;;;5035977;28;20030;-69
2021/06/23 12:27:16;;;;;;;4.45;0.82;;;22.00;56.30;;;;;;5032892;28;20065;-69
2021/06/23 12:29:41;;;;;;;5.72;0.90;;;21.90;56.80;;;;;;5034342;28;20064;-69
2021/06/23 12:32:07;;;;;;;4.35;1.00;;;21.90;58.00;;;;;;5034599;28;20037;-69
2021/06/23 12:34:33;;;;;;;4.63;0.80;;;22.10;58.20;;;;;;5031058;28;20598;-69
2021/06/23 12:36:59;;;;;;;7.55;1.33;;;22.20;57.60;;;;;;5035616;28;20022;-69
2021/06/23 12:39:25;;;;;;;5.50;1.42;;;21.90;56.50;;;;;;5034447;28;20392;-67
2021/06/23 12:41:51;;;;;;;4.25;0.82;;;21.90;57.20;;;;;;5033489;28;20041;-67
2021/06/23 12:44:17;;;;;;;5.35;0.90;;;21.80;57.10;;;;;;5035172;28;20032;-67
2021/06/23 12:46:43;;;;;;;3.63;0.88;;;21.80;57.10;;;;;;5035396;28;20116;-67
2021/06/23 12:49:08;;;;;;;6.43;1.13;;;21.60;56.90;;;;;;5034436;28;20065;-67
2021/06/23 12:51:34;;;;;;;4.72;1.00;;;21.60;57.00;;;;;;5032451;28;20076;-67
2021/06/23 12:54:00;;;;;;;4.40;1.05;;;21.70;57.30;;;;;;5034466;28;20087;-67
2021/06/23 12:56:25;;;;;;;4.90;1.25;;;21.70;56.80;;;;;;5042192;28;20490;-67
2021/06/23 12:58:51;;;;;;;2.72;0.70;;;21.70;56.90;;;;;;5017128;28;20022;-66